createdAt,value
2018-07-14T00:00:32.595Z,17.82
2018-07-14T00:01:32.750Z,17.79
2018-07-14T00:02:32.932Z,17.78
2018-07-14T00:03:33.106Z,17.78
2018-07-14T00:04:33.287Z,17.71
2018-07-14T00:05:33.496Z,17.71
2018-07-14T00:06:33.635Z,17.76
2018-07-14T00:07:33.818Z,17.80
2018-07-14T00:08:33.984Z,17.80
2018-07-14T00:09:34.180Z,17.76
2018-07-14T00:10:34.337Z,17.85
2018-07-14T00:11:34.526Z,17.79
2018-07-14T00:12:34.680Z,17.78
2018-07-14T00:13:34.838Z,17.70
2018-07-14T00:14:35.017Z,17.80
2018-07-14T00:15:35.202Z,17.74
2018-07-14T00:16:35.371Z,17.78
2018-07-14T00:17:35.542Z,17.78
2018-07-14T00:18:35.724Z,17.86
2018-07-14T00:19:36.182Z,17.85
2018-07-14T00:20:36.078Z,17.85
2018-07-14T00:21:36.255Z,17.85
2018-07-14T00:22:36.426Z,17.90
2018-07-14T00:23:36.613Z,17.87
2018-07-14T00:24:36.781Z,17.86
2018-07-14T00:25:36.953Z,17.79
2018-07-14T00:26:37.111Z,17.72
2018-07-14T00:27:37.295Z,17.74
2018-07-14T00:28:37.459Z,17.72
2018-07-14T00:29:37.902Z,17.63
2018-07-14T00:30:37.829Z,17.68
2018-07-14T00:31:38.014Z,17.63
2018-07-14T00:32:38.179Z,17.64
2018-07-14T00:33:38.357Z,17.64
2018-07-14T00:34:38.525Z,17.57
2018-07-14T00:35:38.699Z,17.46
2018-07-14T00:36:38.877Z,17.42
2018-07-14T00:37:39.063Z,17.44
2018-07-14T00:38:39.239Z,17.46
2018-07-14T00:39:39.419Z,17.38
2018-07-14T00:40:39.597Z,17.30
2018-07-14T00:41:39.771Z,17.19
2018-07-14T00:42:39.962Z,17.31
2018-07-14T00:43:40.135Z,17.23
2018-07-14T00:44:40.311Z,17.29
2018-07-14T00:45:40.492Z,17.14
2018-07-14T00:46:40.660Z,17.14
2018-07-14T00:47:40.852Z,17.15
2018-07-14T00:48:41.002Z,17.19
2018-07-14T00:49:41.171Z,17.12
2018-07-14T00:50:41.341Z,17.22
2018-07-14T00:51:41.505Z,17.16
2018-07-14T00:52:41.690Z,17.19
2018-07-14T00:53:41.892Z,17.08
2018-07-14T00:54:42.068Z,17.08
2018-07-14T00:55:42.240Z,17.06
2018-07-14T00:56:42.413Z,17.08
2018-07-14T00:57:42.588Z,17.04
2018-07-14T00:58:42.752Z,17.04
2018-07-14T00:59:42.921Z,17.06
2018-07-14T01:00:43.090Z,17.05
2018-07-14T01:01:43.278Z,17.09
2018-07-14T01:02:43.459Z,17.04
2018-07-14T01:03:43.617Z,16.99
2018-07-14T01:04:43.785Z,16.99
2018-07-14T01:05:43.964Z,17.01
2018-07-14T01:06:44.133Z,17.09
2018-07-14T01:07:44.295Z,17.06
2018-07-14T01:08:44.465Z,16.93
2018-07-14T01:09:44.634Z,16.99
2018-07-14T01:10:44.842Z,16.86
2018-07-14T01:11:44.998Z,16.81
2018-07-14T01:12:45.160Z,16.84
2018-07-14T01:13:45.320Z,16.86
2018-07-14T01:14:45.499Z,16.81
2018-07-14T01:15:45.678Z,16.76
2018-07-14T01:16:45.865Z,16.79
2018-07-14T01:17:46.106Z,16.76
2018-07-14T01:18:46.229Z,16.76
2018-07-14T01:19:46.647Z,16.83
2018-07-14T01:20:46.582Z,16.83
2018-07-14T01:21:46.756Z,16.89
2018-07-14T01:22:46.938Z,16.94
2018-07-14T01:23:47.114Z,16.87
2018-07-14T01:24:47.285Z,16.84
2018-07-14T01:25:47.471Z,16.84
2018-07-14T01:26:47.645Z,16.84
2018-07-14T01:27:47.823Z,16.81
2018-07-14T01:28:48.008Z,16.90
2018-07-14T01:29:48.191Z,16.87
2018-07-14T01:30:48.366Z,16.84
2018-07-14T01:31:48.558Z,16.83
2018-07-14T01:32:48.721Z,16.89
2018-07-14T01:33:48.897Z,16.81
2018-07-14T01:34:49.074Z,16.79
2018-07-14T01:35:49.253Z,16.90
2018-07-14T01:36:49.418Z,16.91
2018-07-14T01:37:49.588Z,16.86
2018-07-14T01:38:49.767Z,16.83
2018-07-14T01:39:49.952Z,16.81
2018-07-14T01:40:50.134Z,16.90
2018-07-14T01:41:50.310Z,16.84
2018-07-14T01:42:50.727Z,16.76
2018-07-14T01:43:50.660Z,16.74
2018-07-14T01:44:50.819Z,16.79
2018-07-14T01:45:50.989Z,16.75
2018-07-14T01:46:51.168Z,16.61
2018-07-14T01:47:51.346Z,16.65
2018-07-14T01:48:51.516Z,16.61
2018-07-14T01:49:51.700Z,16.56
2018-07-14T01:50:51.853Z,16.57
2018-07-14T01:51:52.025Z,16.56
2018-07-14T01:52:52.191Z,16.46
2018-07-14T01:53:52.372Z,16.46
2018-07-14T01:54:52.547Z,16.36
2018-07-14T01:55:52.734Z,16.32
2018-07-14T01:56:52.909Z,16.36
2018-07-14T01:57:53.110Z,16.31
2018-07-14T01:58:53.244Z,16.29
2018-07-14T01:59:53.418Z,16.29
2018-07-14T02:00:53.594Z,16.23
2018-07-14T02:01:53.779Z,16.20
2018-07-14T02:02:53.946Z,16.17
2018-07-14T02:03:54.145Z,16.17
2018-07-14T02:04:54.331Z,16.10
2018-07-14T02:05:54.506Z,16.12
2018-07-14T02:06:54.686Z,16.08
2018-07-14T02:07:54.862Z,16.15
2018-07-14T02:08:55.042Z,16.17
2018-07-14T02:09:55.213Z,16.20
2018-07-14T02:10:55.390Z,16.10
2018-07-14T02:11:55.572Z,16.08
2018-07-14T02:12:55.740Z,16.15
2018-07-14T02:13:55.926Z,16.20
2018-07-14T02:14:56.106Z,16.15
2018-07-14T02:15:56.265Z,15.98
2018-07-14T02:16:56.441Z,16.01
2018-07-14T02:17:56.610Z,16.05
2018-07-14T02:18:56.772Z,16.05
2018-07-14T02:19:56.941Z,16.10
2018-07-14T02:20:57.128Z,16.09
2018-07-14T02:21:57.277Z,16.04
2018-07-14T02:22:57.442Z,16.01
2018-07-14T02:23:57.632Z,15.94
2018-07-14T02:24:57.776Z,15.95
2018-07-14T02:25:57.959Z,15.92
2018-07-14T02:26:58.124Z,15.97
2018-07-14T02:27:58.300Z,15.88
2018-07-14T02:28:58.462Z,15.94
2018-07-14T02:29:58.638Z,15.94
2018-07-14T02:30:58.809Z,15.90
2018-07-14T02:31:58.980Z,15.97
2018-07-14T02:32:59.161Z,15.94
2018-07-14T02:33:59.335Z,15.97
2018-07-14T02:34:59.508Z,15.91
2018-07-14T02:35:59.700Z,15.79
2018-07-14T02:36:59.860Z,15.76
2018-07-14T02:38:00.040Z,15.80
2018-07-14T02:39:00.208Z,15.77
2018-07-14T02:40:00.383Z,15.79
2018-07-14T02:41:00.560Z,15.77
2018-07-14T02:42:00.735Z,15.76
2018-07-14T02:43:00.904Z,15.77
2018-07-14T02:44:01.075Z,15.75
2018-07-14T02:45:01.233Z,15.68
2018-07-14T02:46:01.393Z,15.65
2018-07-14T02:47:01.574Z,15.75
2018-07-14T02:48:01.759Z,15.57
2018-07-14T02:49:01.936Z,15.67
2018-07-14T02:50:02.120Z,15.65
2018-07-14T02:51:02.283Z,15.55
2018-07-14T02:52:02.447Z,15.67
2018-07-14T02:53:02.611Z,15.61
2018-07-14T02:54:02.777Z,15.72
2018-07-14T02:55:02.959Z,15.65
2018-07-14T02:56:03.139Z,15.73
2018-07-14T02:57:03.318Z,15.72
2018-07-14T02:58:03.522Z,15.67
2018-07-14T02:59:03.667Z,15.76
2018-07-14T03:00:03.849Z,15.68
2018-07-14T03:01:04.008Z,15.73
2018-07-14T03:02:04.195Z,15.80
2018-07-14T03:03:04.370Z,15.84
2018-07-14T03:04:04.565Z,15.76
2018-07-14T03:05:04.733Z,15.73
2018-07-14T03:06:04.900Z,15.47
2018-07-14T03:07:05.060Z,15.35
2018-07-14T03:08:05.226Z,15.49
2018-07-14T03:09:05.403Z,15.51
2018-07-14T03:10:05.583Z,15.46
2018-07-14T03:11:05.752Z,15.58
2018-07-14T03:12:05.921Z,15.54
2018-07-14T03:13:06.088Z,15.61
2018-07-14T03:14:06.244Z,15.65
2018-07-14T03:15:06.437Z,15.61
2018-07-14T03:16:06.839Z,15.65
2018-07-14T03:17:06.779Z,15.61
2018-07-14T03:18:06.947Z,15.54
2018-07-14T03:19:07.107Z,15.59
2018-07-14T03:20:07.286Z,15.62
2018-07-14T03:21:07.491Z,15.61
2018-07-14T03:22:07.680Z,15.52
2018-07-14T03:23:07.829Z,15.54
2018-07-14T03:24:08.002Z,15.52
2018-07-14T03:25:08.171Z,15.40
2018-07-14T03:26:08.599Z,15.55
2018-07-14T03:27:08.521Z,15.55
2018-07-14T03:28:08.695Z,15.67
2018-07-14T03:29:08.874Z,15.68
2018-07-14T03:30:09.095Z,15.61
2018-07-14T03:31:09.220Z,15.52
2018-07-14T03:32:09.402Z,15.58
2018-07-14T03:33:09.603Z,15.42
2018-07-14T03:34:09.741Z,15.27
2018-07-14T03:35:09.917Z,15.37
2018-07-14T03:36:10.337Z,15.49
2018-07-14T03:37:10.279Z,15.42
2018-07-14T03:38:10.450Z,15.43
2018-07-14T03:39:10.630Z,15.42
2018-07-14T03:40:10.808Z,15.35
2018-07-14T03:41:10.989Z,15.35
2018-07-14T03:42:11.142Z,15.25
2018-07-14T03:43:11.320Z,15.46
2018-07-14T03:44:11.499Z,15.42
2018-07-14T03:45:11.676Z,15.29
2018-07-14T03:46:12.086Z,15.33
2018-07-14T03:47:12.035Z,15.22
2018-07-14T03:48:12.189Z,15.25
2018-07-14T03:49:12.368Z,15.25
2018-07-14T03:50:12.542Z,15.25
2018-07-14T03:51:12.717Z,15.28
2018-07-14T03:52:12.889Z,15.24
2018-07-14T03:53:13.075Z,15.22
2018-07-14T03:54:13.256Z,15.27
2018-07-14T03:55:13.438Z,15.21
2018-07-14T03:56:13.600Z,15.21
2018-07-14T03:57:13.781Z,15.31
2018-07-14T03:58:13.947Z,15.22
2018-07-14T03:59:14.131Z,15.19
2018-07-14T04:00:14.294Z,15.33
2018-07-14T04:01:14.486Z,15.31
2018-07-14T04:02:14.653Z,15.39
2018-07-14T04:03:14.818Z,15.33
2018-07-14T04:04:14.980Z,15.35
2018-07-14T04:05:15.160Z,15.28
2018-07-14T04:06:15.328Z,15.31
2018-07-14T04:07:15.501Z,15.33
2018-07-14T04:08:15.679Z,15.39
2018-07-14T04:09:15.889Z,15.37
2018-07-14T04:10:16.025Z,15.44
2018-07-14T04:11:16.184Z,15.54
2018-07-14T04:12:16.372Z,15.59
2018-07-14T04:13:16.530Z,15.61
2018-07-14T04:14:16.704Z,15.64
2018-07-14T04:15:16.888Z,15.65
2018-07-14T04:16:17.072Z,15.67
2018-07-14T04:17:17.256Z,15.58
2018-07-14T04:18:17.425Z,15.64
2018-07-14T04:19:17.594Z,15.64
2018-07-14T04:20:17.769Z,15.68
2018-07-14T04:21:17.935Z,15.67
2018-07-14T04:22:18.122Z,15.76
2018-07-14T04:23:18.305Z,15.76
2018-07-14T04:24:18.501Z,15.77
2018-07-14T04:25:18.657Z,15.80
2018-07-14T04:26:18.820Z,15.79
2018-07-14T04:27:18.994Z,15.90
2018-07-14T04:28:19.173Z,16.20
2018-07-14T04:29:19.342Z,16.74
2018-07-14T04:30:19.510Z,17.38
2018-07-14T04:31:19.679Z,18.13
2018-07-14T04:32:19.867Z,18.71
2018-07-14T04:33:20.032Z,19.34
2018-07-14T04:34:20.207Z,19.86
2018-07-14T04:35:20.375Z,20.26
2018-07-14T04:36:20.564Z,20.55
2018-07-14T04:37:20.719Z,20.84
2018-07-14T04:38:20.895Z,20.59
2018-07-14T04:39:21.069Z,21.06
2018-07-14T04:40:21.259Z,21.45
2018-07-14T04:41:21.424Z,21.52
2018-07-14T04:42:21.663Z,21.55
2018-07-14T04:43:21.798Z,21.96
2018-07-14T04:44:21.984Z,21.76
2018-07-14T04:45:22.159Z,22.02
2018-07-14T04:46:22.397Z,21.98
2018-07-14T04:47:22.525Z,22.23
2018-07-14T04:48:22.711Z,22.33
2018-07-14T04:49:22.897Z,22.51
2018-07-14T04:50:23.082Z,22.78
2018-07-14T04:51:23.256Z,22.96
2018-07-14T04:52:23.414Z,23.23
2018-07-14T04:53:23.597Z,23.40
2018-07-14T04:54:23.778Z,23.46
2018-07-14T04:55:23.972Z,23.36
2018-07-14T04:56:24.156Z,23.62
2018-07-14T04:57:24.332Z,23.54
2018-07-14T04:58:24.518Z,23.44
2018-07-14T04:59:24.692Z,23.02
2018-07-14T05:00:24.868Z,23.20
2018-07-14T05:01:25.055Z,23.43
2018-07-14T05:02:25.268Z,23.73
2018-07-14T05:03:25.419Z,23.71
2018-07-14T05:04:25.612Z,23.77
2018-07-14T05:05:25.785Z,24.06
2018-07-14T05:06:26.082Z,24.32
2018-07-14T05:07:26.153Z,24.42
2018-07-14T05:08:26.348Z,24.73
2018-07-14T05:09:26.540Z,24.73
2018-07-14T05:10:26.715Z,24.77
2018-07-14T05:11:26.900Z,24.74
2018-07-14T05:12:27.092Z,24.65
2018-07-14T05:13:27.282Z,24.57
2018-07-14T05:14:27.444Z,24.45
2018-07-14T05:15:27.614Z,24.54
2018-07-14T05:16:27.797Z,24.48
2018-07-14T05:17:28.007Z,24.26
2018-07-14T05:18:28.141Z,24.53
2018-07-14T05:19:28.354Z,24.50
2018-07-14T05:20:28.506Z,24.54
2018-07-14T05:21:28.789Z,24.60
2018-07-14T05:22:28.872Z,24.28
2018-07-14T05:23:29.043Z,24.47
2018-07-14T05:24:29.226Z,24.78
2018-07-14T05:25:29.407Z,25.01
2018-07-14T05:26:29.579Z,25.25
2018-07-14T05:27:29.770Z,25.28
2018-07-14T05:28:29.970Z,25.13
2018-07-14T05:29:30.113Z,25.06
2018-07-14T05:30:30.547Z,25.33
2018-07-14T05:31:30.728Z,24.98
2018-07-14T05:32:30.675Z,25.03
2018-07-14T05:33:30.848Z,25.18
2018-07-14T05:34:31.041Z,24.70
2018-07-14T05:35:31.236Z,25.28
2018-07-14T05:36:31.407Z,25.68
2018-07-14T05:37:31.610Z,25.90
2018-07-14T05:38:31.775Z,26.09
2018-07-14T05:39:31.961Z,26.10
2018-07-14T05:40:32.204Z,26.15
2018-07-14T05:41:32.339Z,25.72
2018-07-14T05:42:32.541Z,25.66
2018-07-14T05:43:32.700Z,25.73
2018-07-14T05:44:32.891Z,26.09
2018-07-14T05:45:33.079Z,25.93
2018-07-14T05:46:33.266Z,26.16
2018-07-14T05:47:33.456Z,25.96
2018-07-14T05:48:33.662Z,25.75
2018-07-14T05:49:33.820Z,26.00
2018-07-14T05:50:33.994Z,25.69
2018-07-14T05:51:34.200Z,25.73
2018-07-14T05:52:34.389Z,25.44
2018-07-14T05:53:34.564Z,25.41
2018-07-14T05:54:34.748Z,25.90
2018-07-14T05:55:34.933Z,26.41
2018-07-14T05:56:35.113Z,26.80
2018-07-14T05:57:35.291Z,26.55
2018-07-14T05:58:35.482Z,26.59
2018-07-14T05:59:35.676Z,26.66
2018-07-14T06:00:35.840Z,26.65
2018-07-14T06:01:36.006Z,26.77
2018-07-14T06:02:36.209Z,26.88
2018-07-14T06:03:36.378Z,27.00
2018-07-14T06:04:36.582Z,26.88
2018-07-14T06:05:36.751Z,27.08
2018-07-14T06:06:36.925Z,26.97
2018-07-14T06:07:37.104Z,27.08
2018-07-14T06:08:37.281Z,27.17
2018-07-14T06:09:37.467Z,27.12
2018-07-14T06:10:37.655Z,27.33
2018-07-14T06:11:37.846Z,27.32
2018-07-14T06:12:38.023Z,27.22
2018-07-14T06:13:38.232Z,26.97
2018-07-14T06:14:38.395Z,26.99
2018-07-14T06:15:38.572Z,27.21
2018-07-14T06:16:38.765Z,27.21
2018-07-14T06:17:38.953Z,27.08
2018-07-14T06:18:39.130Z,27.33
2018-07-14T06:19:39.378Z,27.40
2018-07-14T06:20:39.527Z,27.36
2018-07-14T06:21:39.687Z,27.45
2018-07-14T06:22:39.861Z,27.85
2018-07-14T06:23:40.059Z,27.78
2018-07-14T06:24:40.258Z,27.98
2018-07-14T06:25:40.705Z,28.02
2018-07-14T06:26:40.609Z,27.93
2018-07-14T06:27:40.794Z,27.39
2018-07-14T06:28:40.975Z,26.81
2018-07-14T06:29:41.158Z,26.81
2018-07-14T06:30:41.342Z,26.96
2018-07-14T06:31:41.542Z,26.95
2018-07-14T06:32:41.730Z,27.36
2018-07-14T06:33:41.888Z,27.36
2018-07-14T06:34:42.069Z,27.12
2018-07-14T06:36:42.436Z,26.70
2018-07-14T06:37:42.625Z,26.92
2018-07-14T06:38:42.838Z,27.35
2018-07-14T06:39:43.015Z,27.70
2018-07-14T06:40:43.212Z,27.82
2018-07-14T06:41:43.405Z,27.55
2018-07-14T06:42:43.592Z,27.73
2018-07-14T06:43:43.754Z,27.70
2018-07-14T06:44:43.967Z,27.85
2018-07-14T06:45:44.150Z,27.85
2018-07-14T06:46:44.295Z,27.80
2018-07-14T06:47:44.482Z,27.44
2018-07-14T06:48:44.652Z,27.47
2018-07-14T06:49:44.845Z,27.58
2018-07-14T06:50:45.022Z,27.51
2018-07-14T06:51:45.219Z,26.23
2018-07-14T06:52:45.396Z,26.29
2018-07-14T06:53:45.572Z,26.10
2018-07-14T06:54:45.773Z,26.13
2018-07-14T06:55:45.974Z,26.06
2018-07-14T06:56:46.142Z,26.02
2018-07-14T06:57:46.331Z,26.40
2018-07-14T06:58:46.503Z,26.48
2018-07-14T06:59:46.705Z,26.15
2018-07-14T07:00:46.856Z,26.16
2018-07-14T07:01:47.067Z,25.80
2018-07-14T07:02:47.270Z,25.65
2018-07-14T07:03:47.427Z,25.10
2018-07-14T07:04:47.623Z,25.21
2018-07-14T07:05:47.813Z,25.16
2018-07-14T07:06:47.997Z,25.73
2018-07-14T07:07:48.190Z,25.17
2018-07-14T07:08:48.371Z,25.06
2018-07-14T07:09:48.563Z,25.47
2018-07-14T07:10:48.743Z,26.21
2018-07-14T07:11:48.925Z,26.09
2018-07-14T07:12:49.125Z,26.84
2018-07-14T07:13:49.371Z,27.14
2018-07-14T07:14:49.508Z,27.25
2018-07-14T07:15:49.713Z,27.25
2018-07-14T07:16:49.869Z,27.21
2018-07-14T07:17:50.053Z,27.03
2018-07-14T07:18:50.255Z,27.49
2018-07-14T07:19:50.447Z,27.36
2018-07-14T07:20:50.640Z,27.75
2018-07-14T07:21:50.794Z,27.71
2018-07-14T07:22:51.976Z,28.04
2018-07-14T07:23:51.157Z,28.39
2018-07-14T07:24:51.351Z,28.47
2018-07-14T07:25:51.524Z,29.05
2018-07-14T07:26:51.708Z,28.79
2018-07-14T07:27:51.898Z,28.63
2018-07-14T07:28:52.152Z,28.49
2018-07-14T07:29:52.237Z,28.04
2018-07-14T07:30:52.440Z,28.07
2018-07-14T07:31:52.596Z,27.78
2018-07-14T07:32:52.801Z,28.07
2018-07-14T07:33:53.058Z,27.95
2018-07-14T07:34:53.181Z,28.17
2018-07-14T07:35:53.360Z,27.98
2018-07-14T07:36:53.537Z,28.12
2018-07-14T07:37:53.724Z,27.45
2018-07-14T07:38:53.908Z,27.71
2018-07-14T07:39:54.083Z,27.26
2018-07-14T07:40:54.275Z,26.80
2018-07-14T07:41:54.463Z,26.62
2018-07-14T07:42:54.641Z,27.33
2018-07-14T07:43:54.811Z,27.68
2018-07-14T07:44:55.010Z,27.92
2018-07-14T07:45:55.197Z,28.29
2018-07-14T07:46:55.365Z,28.45
2018-07-14T07:47:55.547Z,28.81
2018-07-14T07:48:55.743Z,28.64
2018-07-14T07:49:55.921Z,28.88
2018-07-14T07:50:56.090Z,28.60
2018-07-14T07:51:56.270Z,28.38
2018-07-14T07:52:56.468Z,28.52
2018-07-14T07:53:56.643Z,28.96
2018-07-14T07:54:56.831Z,29.07
2018-07-14T07:55:56.996Z,28.85
2018-07-14T07:56:57.167Z,28.96
2018-07-14T07:57:57.367Z,29.36
2018-07-14T07:58:57.530Z,29.42
2018-07-14T07:59:57.705Z,29.24
2018-07-14T08:00:57.894Z,29.60
2018-07-14T08:01:58.051Z,29.66
2018-07-14T08:02:58.222Z,29.76
2018-07-14T08:03:58.400Z,30.03
2018-07-14T08:04:58.597Z,29.98
2018-07-14T08:05:58.764Z,29.90
2018-07-14T08:06:58.974Z,29.95
2018-07-14T08:07:59.160Z,30.13
2018-07-14T08:08:59.363Z,30.02
2018-07-14T08:09:59.509Z,29.36
2018-07-14T08:10:59.731Z,29.26
2018-07-14T08:11:59.932Z,29.05
2018-07-14T08:13:00.104Z,28.07
2018-07-14T08:14:00.277Z,28.35
2018-07-14T08:15:00.482Z,28.64
2018-07-14T08:16:00.657Z,29.02
2018-07-14T08:17:00.837Z,28.93
2018-07-14T08:18:01.020Z,28.23
2018-07-14T08:19:01.196Z,28.22
2018-07-14T08:20:01.389Z,28.33
2018-07-14T08:21:01.567Z,28.88
2018-07-14T08:22:01.725Z,29.13
2018-07-14T08:23:01.980Z,28.97
2018-07-14T08:24:02.173Z,29.24
2018-07-14T08:25:02.295Z,28.74
2018-07-14T08:26:02.477Z,27.80
2018-07-14T08:27:02.670Z,28.33
2018-07-14T08:28:02.848Z,28.38
2018-07-14T08:29:03.026Z,28.86
2018-07-14T08:30:03.224Z,29.13
2018-07-14T08:31:03.398Z,29.14
2018-07-14T08:32:03.614Z,29.16
2018-07-14T08:33:03.767Z,29.13
2018-07-14T08:34:03.954Z,29.41
2018-07-14T08:35:04.117Z,29.63
2018-07-14T08:36:04.331Z,29.31
2018-07-14T08:37:04.478Z,28.25
2018-07-14T08:38:04.728Z,27.75
2018-07-14T08:39:04.829Z,28.22
2018-07-14T08:40:05.005Z,27.85
2018-07-14T08:41:05.208Z,27.26
2018-07-14T08:42:05.390Z,27.58
2018-07-14T08:43:05.543Z,27.51
2018-07-14T08:44:05.750Z,27.08
2018-07-14T08:45:05.921Z,27.55
2018-07-14T08:46:06.103Z,28.32
2018-07-14T08:47:06.338Z,28.25
2018-07-14T08:48:06.535Z,28.56
2018-07-14T08:49:06.718Z,29.16
2018-07-14T08:50:06.903Z,29.38
2018-07-14T08:51:07.133Z,29.34
2018-07-14T08:52:07.251Z,28.75
2018-07-14T08:53:07.449Z,27.90
2018-07-14T08:54:07.628Z,28.17
2018-07-14T08:55:07.813Z,28.26
2018-07-14T08:56:07.999Z,27.42
2018-07-14T08:57:08.457Z,28.14
2018-07-14T08:58:08.425Z,28.27
2018-07-14T08:59:08.547Z,28.63
2018-07-14T09:00:08.768Z,28.91
2018-07-14T09:01:08.902Z,29.16
2018-07-14T09:02:09.093Z,29.16
2018-07-14T09:03:09.524Z,29.41
2018-07-14T09:04:09.490Z,29.75
2018-07-14T09:05:09.648Z,29.97
2018-07-14T09:06:09.840Z,30.15
2018-07-14T09:07:10.128Z,30.10
2018-07-14T09:08:10.220Z,29.93
2018-07-14T09:09:10.389Z,30.18
2018-07-14T09:10:10.560Z,30.50
2018-07-14T09:11:10.743Z,30.48
2018-07-14T09:12:11.203Z,30.47
2018-07-14T09:13:12.096Z,29.87
2018-07-14T09:14:11.417Z,30.06
2018-07-14T09:15:12.287Z,30.00
2018-07-14T09:16:11.767Z,30.53
2018-07-14T09:17:11.943Z,30.66
2018-07-14T09:18:12.114Z,30.77
2018-07-14T09:19:12.312Z,30.63
2018-07-14T09:20:12.499Z,30.47
2018-07-14T09:21:12.692Z,30.46
2018-07-14T09:22:12.876Z,30.92
2018-07-14T09:23:13.056Z,31.14
2018-07-14T09:24:13.253Z,31.06
2018-07-14T09:25:13.437Z,31.06
2018-07-14T09:26:13.650Z,30.83
2018-07-14T09:27:13.768Z,29.90
2018-07-14T09:28:13.957Z,29.51
2018-07-14T09:29:14.123Z,29.24
2018-07-14T09:30:14.314Z,28.70
2018-07-14T09:31:14.497Z,28.63
2018-07-14T09:32:14.655Z,29.01
2018-07-14T09:33:14.855Z,29.32
2018-07-14T09:34:15.028Z,29.63
2018-07-14T09:35:15.226Z,29.76
2018-07-14T09:36:15.412Z,29.59
2018-07-14T09:37:15.639Z,29.78
2018-07-14T09:38:15.788Z,30.10
2018-07-14T09:39:15.960Z,30.21
2018-07-14T09:40:16.149Z,30.28
2018-07-14T09:41:16.339Z,30.00
2018-07-14T09:42:16.524Z,29.73
2018-07-14T09:43:16.702Z,29.45
2018-07-14T09:44:16.924Z,29.39
2018-07-14T09:45:17.083Z,29.51
2018-07-14T09:46:17.236Z,29.32
2018-07-14T09:47:17.419Z,29.61
2018-07-14T09:48:17.601Z,29.60
2018-07-14T09:49:17.770Z,29.86
2018-07-14T09:50:17.950Z,29.95
2018-07-14T09:51:18.136Z,29.82
2018-07-14T09:52:18.312Z,29.65
2018-07-14T09:53:18.491Z,29.42
2018-07-14T09:54:18.670Z,29.31
2018-07-14T09:55:19.025Z,29.56
2018-07-14T09:56:19.070Z,29.88
2018-07-14T09:57:19.268Z,29.82
2018-07-14T09:58:19.446Z,29.23
2018-07-14T09:59:19.626Z,29.07
2018-07-14T10:00:19.806Z,28.74
2018-07-14T10:01:19.987Z,29.10
2018-07-14T10:03:20.387Z,29.79
2018-07-14T10:04:20.507Z,29.78
2018-07-14T10:05:20.692Z,30.09
2018-07-14T10:06:20.896Z,30.43
2018-07-14T10:07:21.065Z,30.46
2018-07-14T10:08:21.290Z,30.47
2018-07-14T10:09:21.438Z,30.69
2018-07-14T10:10:21.632Z,30.47
2018-07-14T10:11:21.819Z,29.57
2018-07-14T10:12:22.001Z,29.04
2018-07-14T10:13:22.200Z,29.05
2018-07-14T10:14:22.397Z,28.29
2018-07-14T10:15:22.567Z,28.85
2018-07-14T10:16:22.737Z,29.08
2018-07-14T10:17:22.982Z,29.02
2018-07-14T10:18:23.117Z,28.96
2018-07-14T10:19:23.317Z,28.66
2018-07-14T10:20:23.528Z,28.22
2018-07-14T10:21:23.659Z,28.63
2018-07-14T10:22:23.945Z,28.81
2018-07-14T10:23:24.039Z,29.13
2018-07-14T10:24:24.224Z,29.44
2018-07-14T10:25:24.527Z,29.34
2018-07-14T10:26:24.604Z,29.61
2018-07-14T10:27:24.777Z,29.57
2018-07-14T10:28:24.960Z,29.84
2018-07-14T10:29:25.145Z,30.09
2018-07-14T10:30:25.335Z,30.18
2018-07-14T10:31:25.507Z,29.32
2018-07-14T10:32:25.680Z,28.91
2018-07-14T10:33:25.874Z,28.89
2018-07-14T10:34:26.053Z,28.97
2018-07-14T10:35:26.232Z,29.16
2018-07-14T10:36:26.410Z,28.85
2018-07-14T10:37:26.583Z,29.22
2018-07-14T10:38:26.796Z,29.56
2018-07-14T10:39:27.023Z,30.03
2018-07-14T10:40:27.181Z,30.23
2018-07-14T10:41:27.379Z,30.00
2018-07-14T10:42:27.600Z,30.02
2018-07-14T10:43:27.716Z,29.81
2018-07-14T10:44:27.909Z,29.63
2018-07-14T10:45:28.092Z,29.51
2018-07-14T10:46:28.244Z,29.39
2018-07-14T10:47:28.430Z,29.45
2018-07-14T10:48:28.613Z,29.50
2018-07-14T10:49:28.796Z,29.51
2018-07-14T10:50:28.996Z,29.34
2018-07-14T10:51:29.244Z,29.29
2018-07-14T10:52:29.356Z,29.54
2018-07-14T10:53:29.602Z,29.19
2018-07-14T10:54:29.735Z,29.27
2018-07-14T10:55:29.917Z,29.20
2018-07-14T10:56:30.157Z,29.24
2018-07-14T10:57:30.307Z,28.42
2018-07-14T10:58:30.486Z,28.48
2018-07-14T10:59:30.681Z,28.25
2018-07-14T11:00:30.883Z,28.01
2018-07-14T11:01:31.047Z,28.30
2018-07-14T11:02:31.210Z,28.32
2018-07-14T11:03:31.401Z,28.05
2018-07-14T11:04:31.685Z,28.32
2018-07-14T11:05:31.762Z,28.14
2018-07-14T11:06:31.997Z,27.45
2018-07-14T11:07:32.129Z,26.96
2018-07-14T11:08:32.343Z,27.21
2018-07-14T11:09:32.488Z,27.14
2018-07-14T11:10:32.706Z,27.33
2018-07-14T11:11:32.830Z,27.77
2018-07-14T11:12:33.024Z,27.98
2018-07-14T11:13:33.198Z,28.37
2018-07-14T11:14:33.410Z,28.66
2018-07-14T11:15:33.611Z,28.69
2018-07-14T11:16:33.781Z,28.63
2018-07-14T11:17:34.222Z,28.64
2018-07-14T11:18:34.163Z,29.12
2018-07-14T11:19:34.326Z,29.26
2018-07-14T11:20:34.496Z,29.50
2018-07-14T11:21:34.659Z,29.39
2018-07-14T11:22:34.842Z,29.75
2018-07-14T11:23:35.051Z,29.82
2018-07-14T11:24:35.206Z,29.91
2018-07-14T11:25:35.388Z,29.93
2018-07-14T11:26:35.566Z,30.12
2018-07-14T11:27:35.755Z,30.31
2018-07-14T11:28:35.959Z,30.57
2018-07-14T11:29:36.129Z,30.78
2018-07-14T11:30:36.322Z,30.92
2018-07-14T11:32:36.666Z,30.59
2018-07-14T11:33:36.858Z,30.66
2018-07-14T11:34:37.129Z,30.69
2018-07-14T11:35:37.204Z,30.81
2018-07-14T11:36:37.396Z,30.75
2018-07-14T11:37:37.664Z,30.47
2018-07-14T11:38:37.785Z,30.44
2018-07-14T11:39:37.992Z,30.68
2018-07-14T11:40:38.171Z,30.68
2018-07-14T11:41:38.369Z,30.72
2018-07-14T11:42:38.534Z,30.62
2018-07-14T11:43:38.749Z,30.55
2018-07-14T11:44:38.874Z,30.46
2018-07-14T11:45:39.073Z,29.94
2018-07-14T11:46:39.272Z,29.76
2018-07-14T11:47:39.476Z,29.57
2018-07-14T11:48:39.709Z,29.39
2018-07-14T11:49:39.790Z,29.16
2018-07-14T11:50:40.018Z,29.13
2018-07-14T11:51:40.148Z,28.82
2018-07-14T11:52:40.355Z,28.72
2018-07-14T11:53:40.503Z,28.88
2018-07-14T11:54:40.703Z,29.07
2018-07-14T11:55:40.861Z,28.94
2018-07-14T11:56:41.050Z,29.12
2018-07-14T11:57:41.227Z,29.16
2018-07-14T11:58:41.411Z,29.29
2018-07-14T11:59:41.601Z,29.53
2018-07-14T12:00:41.775Z,29.79
2018-07-14T12:01:41.946Z,29.78
2018-07-14T12:02:42.431Z,29.88
2018-07-14T12:03:42.318Z,29.90
2018-07-14T12:04:42.487Z,29.86
2018-07-14T12:06:42.841Z,29.88
2018-07-14T12:07:43.010Z,29.63
2018-07-14T12:08:43.218Z,29.78
2018-07-14T12:09:43.382Z,29.98
2018-07-14T12:10:43.573Z,30.18
2018-07-14T12:11:43.765Z,29.51
2018-07-14T12:12:43.964Z,29.35
2018-07-14T12:13:44.137Z,29.29
2018-07-14T12:14:44.295Z,29.23
2018-07-14T12:15:44.493Z,28.76
2018-07-14T12:16:44.656Z,29.01
2018-07-14T12:17:44.847Z,29.07
2018-07-14T12:18:45.021Z,29.26
2018-07-14T12:19:45.215Z,29.39
2018-07-14T12:20:45.387Z,29.61
2018-07-14T12:21:45.591Z,29.53
2018-07-14T12:22:45.766Z,29.56
2018-07-14T12:23:45.949Z,29.78
2018-07-14T12:24:46.143Z,29.78
2018-07-14T12:25:46.320Z,30.02
2018-07-14T12:26:46.587Z,29.94
2018-07-14T12:27:46.665Z,30.05
2018-07-14T12:28:46.934Z,29.84
2018-07-14T12:29:47.089Z,29.90
2018-07-14T12:30:47.282Z,29.94
2018-07-14T12:31:47.495Z,30.13
2018-07-14T12:32:47.669Z,30.19
2018-07-14T12:33:47.838Z,30.12
2018-07-14T12:34:47.996Z,30.10
2018-07-14T12:35:48.170Z,30.18
2018-07-14T12:36:48.424Z,30.25
2018-07-14T12:37:48.553Z,30.06
2018-07-14T12:38:48.730Z,30.00
2018-07-14T12:39:48.935Z,29.75
2018-07-14T12:40:49.101Z,29.65
2018-07-14T12:41:49.276Z,29.78
2018-07-14T12:42:49.463Z,29.49
2018-07-14T12:43:49.637Z,29.65
2018-07-14T12:44:49.810Z,29.75
2018-07-14T12:45:50.028Z,29.91
2018-07-14T12:46:50.172Z,29.95
2018-07-14T12:47:50.336Z,29.93
2018-07-14T12:48:50.532Z,29.78
2018-07-14T12:49:50.720Z,29.84
2018-07-14T12:50:50.908Z,29.87
2018-07-14T12:51:51.110Z,29.91
2018-07-14T12:52:51.261Z,29.78
2018-07-14T12:53:51.489Z,29.59
2018-07-14T12:54:51.619Z,29.23
2018-07-14T12:55:51.803Z,29.24
2018-07-14T12:56:51.987Z,29.53
2018-07-14T12:57:52.291Z,29.81
2018-07-14T12:58:52.389Z,29.90